createdAt,value
2023-05-25T00:02:24.481Z,31.55
2023-05-25T00:04:52.074Z,28.08
2023-05-25T00:07:19.362Z,27.45
2023-05-25T00:09:46.835Z,27.00
2023-05-25T00:12:14.536Z,28.38
2023-05-25T00:14:41.309Z,28.38
2023-05-25T00:17:09.983Z,28.95
2023-05-25T00:19:38.071Z,28.15
2023-05-25T00:22:04.976Z,28.00
2023-05-25T00:24:31.890Z,28.02
2023-05-25T00:26:58.732Z,28.27
2023-05-25T00:29:26.001Z,29.55
2023-05-25T00:31:53.383Z,30.63
2023-05-25T00:34:20.776Z,32.38
2023-05-25T00:36:48.773Z,33.88
2023-05-25T00:39:19.580Z,32.33
2023-05-25T00:41:47.582Z,32.58
2023-05-25T00:44:15.827Z,33.60
2023-05-25T00:46:49.091Z,31.05
2023-05-25T00:49:18.326Z,31.40
2023-05-25T00:51:46.630Z,31.08
2023-05-25T00:54:15.155Z,32.10
2023-05-25T00:57:02.441Z,30.35
2023-05-25T00:59:35.657Z,31.50
2023-05-25T01:02:07.537Z,31.65
2023-05-25T01:04:36.826Z,29.55
2023-05-25T01:07:06.864Z,29.52
2023-05-25T01:09:35.090Z,30.50
2023-05-25T01:12:03.677Z,31.00
2023-05-25T01:14:31.230Z,31.60
2023-05-25T01:16:58.902Z,29.90
2023-05-25T01:19:25.754Z,30.23
2023-05-25T01:22:04.964Z,29.80
2023-05-25T01:24:40.752Z,30.08
2023-05-25T01:27:22.292Z,28.98
2023-05-25T01:29:49.540Z,30.88
2023-05-25T01:32:18.227Z,31.85
2023-05-25T01:34:46.697Z,35.35
2023-05-25T01:37:13.827Z,30.73
2023-05-25T01:39:41.256Z,32.10
2023-05-25T01:42:08.368Z,31.17
2023-05-25T01:44:36.262Z,33.28
2023-05-25T01:47:16.599Z,32.70
2023-05-25T01:49:49.988Z,33.95
2023-05-25T01:52:24.254Z,32.58
2023-05-25T01:55:03.233Z,31.63
2023-05-25T01:57:34.427Z,32.88
2023-05-25T02:00:03.627Z,31.50
2023-05-25T02:02:43.138Z,33.40
2023-05-25T02:05:11.433Z,33.47
2023-05-25T02:07:38.446Z,33.25
2023-05-25T02:10:05.876Z,31.33
2023-05-25T02:12:32.576Z,31.77
2023-05-25T02:14:59.258Z,31.75
2023-05-25T02:17:27.877Z,32.03
2023-05-25T02:19:54.896Z,33.97
2023-05-25T02:22:22.406Z,32.83
2023-05-25T02:24:49.131Z,32.13
2023-05-25T02:27:15.949Z,33.17
2023-05-25T02:29:43.568Z,33.40
2023-05-25T02:32:10.257Z,31.15
2023-05-25T02:34:36.947Z,31.63
2023-05-25T02:37:04.258Z,33.63
2023-05-25T02:39:31.154Z,33.97
2023-05-25T02:41:59.070Z,32.08
2023-05-25T02:44:26.645Z,32.75
2023-05-25T02:46:53.459Z,30.50
2023-05-25T02:49:20.397Z,30.70
2023-05-25T02:51:47.998Z,32.30
2023-05-25T02:54:14.751Z,30.63
2023-05-25T02:56:42.437Z,32.42
2023-05-25T02:59:09.412Z,33.97
2023-05-25T03:01:36.267Z,34.38
2023-05-25T03:04:03.527Z,31.55
2023-05-25T03:06:36.469Z,32.22
2023-05-25T03:09:09.610Z,30.90
2023-05-25T03:11:37.928Z,31.85
2023-05-25T03:14:05.340Z,31.45
2023-05-25T03:16:36.471Z,31.13
2023-05-25T03:19:05.356Z,31.98
2023-05-25T03:21:34.178Z,31.20
2023-05-25T03:24:00.878Z,32.83
2023-05-25T03:26:28.870Z,32.83
2023-05-25T03:28:56.376Z,32.03
2023-05-25T03:31:23.453Z,33.03
2023-05-25T03:33:50.306Z,32.30
2023-05-25T03:36:18.293Z,34.05
2023-05-25T03:38:44.996Z,33.45
2023-05-25T03:41:11.686Z,33.20
2023-05-25T03:43:38.642Z,32.50
2023-05-25T03:46:07.084Z,34.22
2023-05-25T03:48:33.942Z,33.72
2023-05-25T03:51:00.582Z,35.47
2023-05-25T03:53:27.305Z,32.47
2023-05-25T03:55:54.332Z,32.03
2023-05-25T03:58:21.120Z,31.90
2023-05-25T04:00:51.478Z,31.42
2023-05-25T04:03:18.856Z,31.80
2023-05-25T04:05:46.390Z,29.98
2023-05-25T04:08:17.931Z,32.10
2023-05-25T04:10:47.784Z,34.20
2023-05-25T04:13:14.554Z,32.53
2023-05-25T04:15:41.498Z,32.20
2023-05-25T04:18:19.110Z,31.08
2023-05-25T04:20:47.617Z,31.88
2023-05-25T04:23:15.890Z,31.77
2023-05-25T04:25:45.296Z,32.30
2023-05-25T04:28:12.523Z,30.55
2023-05-25T04:30:57.596Z,32.47
2023-05-25T04:33:47.509Z,32.95
2023-05-25T04:36:24.916Z,32.00
2023-05-25T04:38:54.722Z,34.00
2023-05-25T04:41:22.631Z,34.30
2023-05-25T04:44:06.858Z,32.70
2023-05-25T04:46:37.225Z,32.33
2023-05-25T04:49:05.507Z,32.67
2023-05-25T04:51:32.435Z,33.45
2023-05-25T04:53:59.774Z,32.97
2023-05-25T04:56:26.724Z,35.35
2023-05-25T04:58:53.735Z,35.05
2023-05-25T05:01:20.870Z,32.88
2023-05-25T05:03:48.417Z,34.83
2023-05-25T05:06:15.316Z,32.97
2023-05-25T05:08:42.625Z,28.58
2023-05-25T05:11:09.344Z,30.95
2023-05-25T05:13:36.054Z,27.67
2023-05-25T05:16:03.259Z,24.88
2023-05-25T05:18:30.035Z,24.27
2023-05-25T05:20:57.022Z,23.50
2023-05-25T05:23:24.276Z,22.55
2023-05-25T05:25:50.981Z,22.02
2023-05-25T05:28:27.185Z,22.80
2023-05-25T05:30:54.270Z,23.20
2023-05-25T05:33:23.777Z,26.00
2023-05-25T05:35:52.396Z,24.90
2023-05-25T05:38:21.884Z,26.50
2023-05-25T05:40:48.653Z,29.73
2023-05-25T05:43:19.932Z,28.67
2023-05-25T05:45:47.115Z,31.25
2023-05-25T05:48:14.462Z,31.23
2023-05-25T05:50:42.384Z,29.38
2023-05-25T05:53:10.948Z,30.27
2023-05-25T05:55:37.878Z,30.77
2023-05-25T05:58:04.736Z,31.55
2023-05-25T06:00:32.106Z,29.48
2023-05-25T06:03:00.444Z,27.08
2023-05-25T06:05:28.984Z,28.48
2023-05-25T06:07:56.453Z,26.17
2023-05-25T06:10:23.289Z,28.05
2023-05-25T06:12:50.188Z,28.00
2023-05-25T06:15:16.981Z,29.98
2023-05-25T06:17:48.400Z,29.05
2023-05-25T06:20:16.119Z,29.27
2023-05-25T06:22:43.041Z,30.67
2023-05-25T06:25:10.663Z,30.65
2023-05-25T06:27:38.117Z,31.60
2023-05-25T06:30:05.683Z,27.73
2023-05-25T06:32:32.532Z,30.40
2023-05-25T06:34:59.314Z,30.88
2023-05-25T06:37:27.733Z,32.92
2023-05-25T06:39:56.925Z,34.15
2023-05-25T06:42:24.307Z,32.75
2023-05-25T06:44:55.442Z,34.15
2023-05-25T06:47:22.177Z,34.10
2023-05-25T06:49:49.491Z,36.17
2023-05-25T06:52:16.221Z,33.45
2023-05-25T06:54:42.889Z,34.67
2023-05-25T06:57:09.725Z,34.78
2023-05-25T06:59:36.385Z,35.03
2023-05-25T07:02:03.089Z,35.17
2023-05-25T07:04:29.803Z,34.50
2023-05-25T07:06:56.533Z,35.10
2023-05-25T07:09:23.184Z,38.17
2023-05-25T07:11:49.923Z,35.38
2023-05-25T07:14:17.442Z,34.05
2023-05-25T07:16:45.105Z,35.05
2023-05-25T07:19:11.899Z,33.58
2023-05-25T07:21:38.783Z,34.83
2023-05-25T07:24:05.757Z,34.63
2023-05-25T07:26:34.524Z,35.08
2023-05-25T07:29:01.263Z,34.95
2023-05-25T07:31:28.037Z,31.80
2023-05-25T07:33:56.117Z,29.42
2023-05-25T07:36:24.813Z,30.77
2023-05-25T07:38:51.712Z,30.90
2023-05-25T07:41:18.442Z,31.92
2023-05-25T07:43:45.692Z,30.35
2023-05-25T07:46:12.430Z,29.77
2023-05-25T07:48:39.301Z,30.30
2023-05-25T07:51:05.980Z,29.10
2023-05-25T07:53:32.652Z,29.63
2023-05-25T07:55:59.428Z,31.42
2023-05-25T07:58:26.257Z,33.17
2023-05-25T08:00:52.945Z,33.00
2023-05-25T08:03:31.941Z,34.20
2023-05-25T08:06:07.377Z,32.33
2023-05-25T08:08:34.809Z,32.92
2023-05-25T08:11:02.379Z,33.28
2023-05-25T08:13:29.048Z,32.65
2023-05-25T08:15:55.790Z,33.85
2023-05-25T08:18:22.914Z,33.83
2023-05-25T08:20:49.610Z,33.28
2023-05-25T08:23:16.364Z,31.75
2023-05-25T08:25:43.125Z,33.08
2023-05-25T08:28:09.889Z,32.20
2023-05-25T08:30:36.700Z,31.60
2023-05-25T08:33:03.630Z,32.08
2023-05-25T08:35:30.491Z,30.98
2023-05-25T08:37:57.133Z,32.22
2023-05-25T08:40:27.929Z,32.08
2023-05-25T08:42:54.581Z,32.15
2023-05-25T08:45:34.156Z,33.35
2023-05-25T08:48:06.676Z,31.13
2023-05-25T08:50:34.364Z,30.63
2023-05-25T08:53:03.094Z,31.20
2023-05-25T08:55:33.852Z,32.25
2023-05-25T08:58:32.456Z,32.30
2023-05-25T09:01:04.088Z,31.98
2023-05-25T09:03:31.727Z,31.08
2023-05-25T09:05:59.520Z,32.05
2023-05-25T09:08:27.157Z,31.67
2023-05-25T09:10:56.366Z,30.58
2023-05-25T09:13:23.337Z,30.92
2023-05-25T09:15:51.895Z,30.42
2023-05-25T09:18:18.825Z,31.65
2023-05-25T09:20:47.250Z,29.33
2023-05-25T09:23:15.076Z,30.40
2023-05-25T09:25:42.435Z,29.65
2023-05-25T09:28:25.394Z,30.38
2023-05-25T09:30:53.885Z,31.13
2023-05-25T09:33:21.341Z,31.10
2023-05-25T09:35:48.629Z,32.60
2023-05-25T09:38:16.649Z,33.03
2023-05-25T09:40:44.267Z,31.25
2023-05-25T09:43:17.196Z,31.23
2023-05-25T09:45:49.356Z,32.20
2023-05-25T09:48:16.232Z,33.15
2023-05-25T09:50:43.569Z,34.28
2023-05-25T09:53:11.684Z,32.95
2023-05-25T09:55:52.248Z,33.00
2023-05-25T09:58:23.858Z,32.33
2023-05-25T10:00:56.064Z,33.03
2023-05-25T10:03:22.963Z,32.42
2023-05-25T10:05:50.100Z,30.98
2023-05-25T10:08:19.834Z,31.38
2023-05-25T10:10:49.725Z,33.10
2023-05-25T10:13:22.493Z,34.33
2023-05-25T10:15:53.483Z,34.40
2023-05-25T10:18:26.111Z,33.28
2023-05-25T10:21:02.772Z,33.08
2023-05-25T10:23:41.644Z,33.20
2023-05-25T10:26:09.359Z,32.22
2023-05-25T10:28:37.811Z,31.50
2023-05-25T10:31:05.649Z,32.97
2023-05-25T10:33:33.527Z,31.92
2023-05-25T10:36:10.036Z,31.35
2023-05-25T10:38:40.222Z,32.47
2023-05-25T10:41:09.650Z,32.78
2023-05-25T10:43:40.363Z,32.17
2023-05-25T10:46:07.900Z,30.25
2023-05-25T10:48:46.827Z,31.42
2023-05-25T10:51:14.221Z,32.10
2023-05-25T10:54:00.347Z,32.72
2023-05-25T10:56:27.089Z,31.70
2023-05-25T10:58:53.805Z,33.17
2023-05-25T11:01:20.747Z,32.15
2023-05-25T11:03:48.171Z,31.70
2023-05-25T11:06:16.845Z,31.20
2023-05-25T11:08:56.557Z,32.35
2023-05-25T11:11:43.328Z,31.05
2023-05-25T11:14:23.605Z,32.00
2023-05-25T11:17:24.436Z,32.38
2023-05-25T11:19:54.068Z,34.70
2023-05-25T11:22:22.926Z,32.05
2023-05-25T11:24:51.401Z,31.17
2023-05-25T11:27:29.095Z,31.60
2023-05-25T11:29:57.614Z,32.28
2023-05-25T11:32:26.025Z,33.90
2023-05-25T11:34:53.942Z,32.28
2023-05-25T11:37:22.114Z,32.05
2023-05-25T11:39:49.767Z,34.05
2023-05-25T11:42:17.427Z,34.20
2023-05-25T11:44:44.346Z,33.92
2023-05-25T11:47:14.199Z,32.83
2023-05-25T11:49:42.285Z,33.50
2023-05-25T11:52:09.915Z,33.72
2023-05-25T11:54:36.763Z,33.72
2023-05-25T11:57:03.736Z,33.75
2023-05-25T11:59:32.403Z,33.15
2023-05-25T12:02:04.179Z,34.05
2023-05-25T12:04:34.774Z,33.72
2023-05-25T12:07:06.657Z,34.92
2023-05-25T12:09:34.231Z,32.20
2023-05-25T12:12:04.176Z,33.50
2023-05-25T12:14:31.247Z,34.42
2023-05-25T12:16:58.562Z,34.20
2023-05-25T12:19:25.662Z,33.80
2023-05-25T12:21:52.985Z,33.55
2023-05-25T12:24:19.866Z,33.60
2023-05-25T12:26:57.263Z,33.85
2023-05-25T12:29:25.460Z,33.92
2023-05-25T12:31:52.488Z,34.80
2023-05-25T12:34:20.281Z,33.42
2023-05-25T12:36:52.312Z,32.65
2023-05-25T12:39:34.731Z,32.58
2023-05-25T12:42:02.317Z,32.35
2023-05-25T12:44:36.683Z,32.75
2023-05-25T12:47:19.638Z,31.63
2023-05-25T12:49:54.295Z,31.95
2023-05-25T12:52:37.660Z,31.67
2023-05-25T12:55:27.927Z,34.00
2023-05-25T12:57:59.025Z,32.42
2023-05-25T13:00:36.672Z,31.60
2023-05-25T13:03:05.216Z,34.00
2023-05-25T13:05:35.058Z,34.53
2023-05-25T13:08:02.931Z,33.80
2023-05-25T13:10:30.667Z,34.13
2023-05-25T13:12:58.421Z,33.15
2023-05-25T13:15:26.839Z,33.28
2023-05-25T13:17:54.861Z,33.08
2023-05-25T13:20:24.747Z,31.85
2023-05-25T13:22:53.112Z,33.33
2023-05-25T13:25:21.886Z,31.67
2023-05-25T13:27:51.417Z,33.92
2023-05-25T13:30:20.644Z,32.92
2023-05-25T13:32:49.530Z,34.20
2023-05-25T13:35:36.541Z,35.38
2023-05-25T13:38:03.748Z,33.03
2023-05-25T13:40:30.425Z,33.90
2023-05-25T13:42:57.572Z,34.92
2023-05-25T13:45:24.241Z,34.35
2023-05-25T13:47:51.492Z,34.65
2023-05-25T13:50:18.610Z,36.63
2023-05-25T13:52:45.260Z,36.95
2023-05-25T13:55:12.157Z,35.85
2023-05-25T13:57:38.811Z,37.25
2023-05-25T14:00:07.550Z,36.55
2023-05-25T14:02:35.137Z,37.17
2023-05-25T14:05:02.063Z,36.75
2023-05-25T14:07:28.766Z,35.08
2023-05-25T14:09:57.065Z,36.00
2023-05-25T14:12:24.797Z,35.40
2023-05-25T14:14:51.686Z,34.97
2023-05-25T14:17:18.464Z,35.00
2023-05-25T14:19:45.276Z,35.38
2023-05-25T14:22:14.414Z,34.78
2023-05-25T14:24:42.022Z,36.30
2023-05-25T14:27:09.362Z,35.65
2023-05-25T14:29:37.097Z,35.30
2023-05-25T14:32:04.059Z,34.50
2023-05-25T14:34:30.776Z,35.75
2023-05-25T14:36:57.485Z,36.13
2023-05-25T14:39:24.208Z,36.13
2023-05-25T14:41:50.908Z,37.45
2023-05-25T14:44:18.104Z,34.85
2023-05-25T14:46:44.834Z,34.08
2023-05-25T14:49:11.648Z,36.45
2023-05-25T14:51:38.445Z,35.92
2023-05-25T14:54:07.157Z,36.45
2023-05-25T14:56:34.977Z,34.42
2023-05-25T14:59:01.784Z,34.20
2023-05-25T15:01:29.300Z,33.42
2023-05-25T15:03:56.468Z,33.22
2023-05-25T15:06:23.431Z,32.70
2023-05-25T15:08:50.176Z,35.20
2023-05-25T15:11:17.904Z,32.97
2023-05-25T15:13:44.836Z,34.28
2023-05-25T15:16:15.983Z,33.70
2023-05-25T15:18:43.388Z,34.28
2023-05-25T15:21:10.489Z,33.92
2023-05-25T15:23:37.419Z,35.53
2023-05-25T15:26:05.553Z,34.33
2023-05-25T15:28:32.402Z,34.17
2023-05-25T15:31:02.304Z,32.75
2023-05-25T15:33:49.603Z,33.72
2023-05-25T15:36:19.027Z,33.80
2023-05-25T15:38:48.809Z,33.97
2023-05-25T15:41:16.657Z,32.47
2023-05-25T15:43:51.437Z,34.25
2023-05-25T15:46:18.550Z,33.88
2023-05-25T15:48:45.488Z,31.95
2023-05-25T15:51:12.612Z,32.67
2023-05-25T15:53:39.590Z,34.35
2023-05-25T15:56:06.445Z,33.75
2023-05-25T15:58:34.809Z,34.67
2023-05-25T16:01:01.757Z,35.35
2023-05-25T16:03:29.407Z,35.53
2023-05-25T16:05:56.488Z,33.75
2023-05-25T16:08:23.646Z,34.75
2023-05-25T16:10:50.494Z,33.97
2023-05-25T16:13:17.202Z,34.55
2023-05-25T16:15:44.479Z,35.35
2023-05-25T16:18:11.527Z,35.15
2023-05-25T16:20:38.423Z,33.42
2023-05-25T16:23:05.237Z,32.65
2023-05-25T16:25:31.932Z,33.45
2023-05-25T16:27:58.605Z,35.08
2023-05-25T16:30:25.292Z,34.65
2023-05-25T16:32:52.366Z,34.13
2023-05-25T16:35:19.914Z,33.35
2023-05-25T16:37:46.616Z,33.10
2023-05-25T16:40:13.313Z,34.08
2023-05-25T16:42:40.000Z,36.38
2023-05-25T16:45:07.271Z,36.63
2023-05-25T16:47:33.928Z,37.65
2023-05-25T16:50:00.678Z,36.38
2023-05-25T16:52:27.330Z,34.65
2023-05-25T16:54:55.178Z,34.65
2023-05-25T16:57:22.009Z,33.45
2023-05-25T16:59:48.710Z,33.53
2023-05-25T17:02:15.426Z,33.40
2023-05-25T17:04:42.173Z,32.30
2023-05-25T17:07:08.856Z,32.95
2023-05-25T17:09:35.670Z,33.22
2023-05-25T17:12:03.504Z,33.63
2023-05-25T17:14:30.425Z,33.58
2023-05-25T17:16:57.085Z,32.58
2023-05-25T17:19:23.766Z,33.67
2023-05-25T17:21:50.549Z,32.63
2023-05-25T17:24:18.000Z,31.88
2023-05-25T17:26:46.333Z,28.52
2023-05-25T17:29:12.992Z,28.80
2023-05-25T17:31:39.695Z,28.75
2023-05-25T17:34:06.497Z,29.98
2023-05-25T17:36:33.139Z,29.27
2023-05-25T17:38:59.857Z,30.08
2023-05-25T17:41:27.497Z,28.42
2023-05-25T17:43:54.181Z,28.80
2023-05-25T17:46:21.476Z,30.33
2023-05-25T17:48:48.441Z,28.52
2023-05-25T17:51:15.361Z,28.00
2023-05-25T17:53:42.097Z,29.05
2023-05-25T17:56:08.892Z,29.85
2023-05-25T17:58:36.138Z,29.88
2023-05-25T18:01:03.189Z,31.70
2023-05-25T18:03:30.135Z,30.45
2023-05-25T18:05:57.011Z,31.20
2023-05-25T18:08:23.680Z,30.33
2023-05-25T18:10:51.474Z,30.15
2023-05-25T18:13:18.148Z,30.75
2023-05-25T18:15:45.068Z,30.70
2023-05-25T18:18:14.526Z,30.13
2023-05-25T18:20:41.504Z,30.38
2023-05-25T18:23:08.599Z,29.00
2023-05-25T18:25:35.344Z,29.15
2023-05-25T18:28:02.014Z,29.30
2023-05-25T18:30:28.750Z,28.17
2023-05-25T18:32:55.624Z,27.90
2023-05-25T18:35:22.372Z,27.17
2023-05-25T18:37:49.055Z,27.23
2023-05-25T18:40:16.276Z,28.08
2023-05-25T18:42:43.153Z,27.25
2023-05-25T18:45:10.094Z,27.98
2023-05-25T18:47:36.761Z,29.17
2023-05-25T18:50:04.330Z,29.05
2023-05-25T18:52:31.090Z,29.55
2023-05-25T18:54:58.252Z,28.40
2023-05-25T18:57:24.921Z,30.35
2023-05-25T18:59:52.065Z,29.27
2023-05-25T19:02:18.887Z,29.67
2023-05-25T19:04:45.577Z,28.98
2023-05-25T19:07:12.801Z,28.52
2023-05-25T19:09:39.568Z,27.73
2023-05-25T19:12:07.250Z,25.38
2023-05-25T19:14:34.143Z,24.55
2023-05-25T19:17:01.151Z,23.75
2023-05-25T19:19:27.862Z,23.33
2023-05-25T19:21:54.537Z,24.98
2023-05-25T19:24:21.413Z,22.52
2023-05-25T19:26:49.807Z,23.52
2023-05-25T19:29:16.876Z,23.55
2023-05-25T19:31:43.585Z,22.40
2023-05-25T19:34:10.426Z,23.60
2023-05-25T19:36:37.085Z,23.52
2023-05-25T19:39:04.771Z,23.27
2023-05-25T19:41:31.873Z,23.05
2023-05-25T19:43:59.029Z,24.35
2023-05-25T19:46:25.845Z,22.70
2023-05-25T19:48:53.312Z,23.20
2023-05-25T19:51:20.009Z,22.48
2023-05-25T19:53:47.897Z,23.23
2023-05-25T19:56:14.652Z,24.17
2023-05-25T19:58:41.327Z,23.65
2023-05-25T20:01:08.682Z,26.00
2023-05-25T20:03:35.723Z,25.00
2023-05-25T20:06:02.469Z,25.33
2023-05-25T20:08:29.499Z,24.77
2023-05-25T20:10:56.274Z,24.60
2023-05-25T20:13:24.893Z,24.00
2023-05-25T20:15:51.672Z,24.13
2023-05-25T20:18:19.005Z,23.40
2023-05-25T20:20:46.105Z,23.17
2023-05-25T20:23:12.974Z,24.75
2023-05-25T20:25:39.759Z,24.17
2023-05-25T20:28:06.818Z,23.75
2023-05-25T20:30:33.511Z,23.63
2023-05-25T20:33:00.411Z,25.33
2023-05-25T20:35:29.122Z,24.83
2023-05-25T20:37:55.991Z,25.90
2023-05-25T20:40:22.666Z,26.70
2023-05-25T20:42:49.395Z,28.67
2023-05-25T20:45:16.499Z,27.95
2023-05-25T20:47:43.353Z,27.17
2023-05-25T20:50:10.317Z,27.15
2023-05-25T20:52:37.016Z,27.02
2023-05-25T20:55:04.012Z,25.52
2023-05-25T20:57:30.865Z,25.77
2023-05-25T20:59:59.748Z,23.80
2023-05-25T21:02:27.964Z,25.52
2023-05-25T21:04:54.717Z,25.67
2023-05-25T21:07:21.388Z,25.63
2023-05-25T21:09:48.153Z,26.52
2023-05-25T21:12:14.922Z,27.80
2023-05-25T21:14:41.647Z,28.65
2023-05-25T21:17:08.341Z,27.80
2023-05-25T21:19:35.011Z,29.38
2023-05-25T21:22:02.451Z,27.42
2023-05-25T21:24:29.101Z,28.65
2023-05-25T21:26:56.176Z,28.83
2023-05-25T21:29:22.914Z,29.40
2023-05-25T21:31:49.732Z,29.23
2023-05-25T21:34:16.454Z,28.75
2023-05-25T21:36:43.571Z,27.23
2023-05-25T21:39:10.591Z,26.55
2023-05-25T21:41:37.542Z,29.52
2023-05-25T21:44:04.293Z,29.25
2023-05-25T21:46:31.059Z,30.05
2023-05-25T21:48:57.840Z,31.42
2023-05-25T21:51:24.510Z,30.50
2023-05-25T21:53:51.326Z,30.38
2023-05-25T21:56:17.984Z,31.58
2023-05-25T21:58:44.665Z,31.98
2023-05-25T22:01:11.778Z,32.42
2023-05-25T22:03:38.629Z,30.48
2023-05-25T22:06:05.430Z,32.95
2023-05-25T22:08:32.112Z,31.83
2023-05-25T22:10:58.761Z,31.90
2023-05-25T22:13:25.459Z,31.80
2023-05-25T22:15:52.397Z,32.25
2023-05-25T22:18:19.276Z,29.00
2023-05-25T22:20:46.149Z,29.10
2023-05-25T22:23:13.145Z,28.05
2023-05-25T22:25:39.880Z,27.00
2023-05-25T22:28:06.609Z,27.83
2023-05-25T22:30:33.365Z,26.20
2023-05-25T22:33:00.313Z,28.00
2023-05-25T22:35:27.005Z,25.77
2023-05-25T22:37:53.725Z,25.08
2023-05-25T22:40:20.511Z,28.65
2023-05-25T22:42:50.120Z,28.85
2023-05-25T22:45:20.996Z,30.13
2023-05-25T22:47:48.211Z,28.83
2023-05-25T22:50:14.957Z,30.30
2023-05-25T22:52:41.648Z,31.48
2023-05-25T22:55:09.362Z,31.33
2023-05-25T22:57:36.030Z,31.13
2023-05-25T23:00:04.225Z,29.10
2023-05-25T23:02:31.223Z,29.88
2023-05-25T23:04:57.995Z,30.33
2023-05-25T23:07:24.641Z,29.73
2023-05-25T23:09:51.502Z,30.42
2023-05-25T23:12:18.241Z,30.73
2023-05-25T23:14:44.934Z,32.63
2023-05-25T23:17:11.586Z,31.73
2023-05-25T23:19:38.727Z,33.80
2023-05-25T23:22:05.388Z,31.20
2023-05-25T23:24:32.060Z,30.15
2023-05-25T23:26:58.708Z,35.35
2023-05-25T23:29:25.366Z,32.70
2023-05-25T23:31:52.112Z,32.33
2023-05-25T23:34:18.938Z,29.42
2023-05-25T23:36:45.858Z,31.08
2023-05-25T23:39:12.925Z,31.05
2023-05-25T23:41:39.655Z,30.73
2023-05-25T23:44:06.401Z,29.77
2023-05-25T23:46:33.603Z,31.67
2023-05-25T23:49:00.273Z,28.23
2023-05-25T23:51:27.197Z,26.67
2023-05-25T23:53:53.957Z,28.00
2023-05-25T23:56:21.824Z,26.00
2023-05-25T23:58:48.611Z,28.13
